Time;durP1;ratioP1;P1;durP2;ratioP2;P2;SDS_P1;SDS_P2;PMS_P1;PMS_P2;Temp;Humidity;BMP_temperature;BMP_pressure;BME280_temperature;BME280_humidity;BME280_pressure;Samples;Min_cycle;Max_cycle;Signal;HPM_P1;HPM_P2
2023/03/13 00:01:42;;;;;;;10.63;2.67;;;13.90;99.90;;;;;;5043258;28;20580;-31
2023/03/13 00:04:16;;;;;;;11.03;3.33;;;14.00;99.90;;;;;;5042945;28;20200;-32
2023/03/13 00:06:45;;;;;;;13.60;3.00;;;13.90;99.90;;;;;;5044930;28;20231;-31
2023/03/13 00:09:16;;;;;;;10.47;2.90;;;13.90;99.90;;;;;;5042448;28;20637;-35
2023/03/13 00:11:44;;;;;;;8.30;2.60;;;13.90;99.90;;;;;;5044827;28;20297;-32
2023/03/13 00:14:14;;;;;;;8.33;2.67;;;14.00;99.90;;;;;;5043445;28;20635;-32
2023/03/13 00:16:42;;;;;;;9.33;2.73;;;14.00;99.90;;;;;;5043595;28;20336;-32
2023/03/13 00:19:09;;;;;;;9.17;2.63;;;13.90;99.90;;;;;;5026516;28;20269;-32
2023/03/13 00:21:41;;;;;;;8.67;2.60;;;13.90;99.90;;;;;;5043501;28;20638;-32
2023/03/13 00:24:11;;;;;;;8.20;2.77;;;14.00;99.90;;;;;;5043905;28;20294;-32
2023/03/13 00:26:38;;;;;;;10.90;3.13;;;13.90;99.90;;;;;;5044611;28;20668;-32
2023/03/13 00:29:07;;;;;;;9.47;2.30;;;13.90;99.90;;;;;;5042830;28;20300;-32
2023/03/13 00:31:35;;;;;;;9.30;2.70;;;13.90;99.90;;;;;;5044345;28;20220;-31
2023/03/13 00:34:04;;;;;;;10.77;2.23;;;14.00;99.90;;;;;;5032543;28;20208;-32
2023/03/13 00:36:34;;;;;;;8.30;2.33;;;14.00;99.90;;;;;;5038324;28;20676;-31
2023/03/13 00:39:07;;;;;;;7.63;2.70;;;13.90;99.90;;;;;;5042336;28;20208;-32
2023/03/13 00:41:35;;;;;;;8.87;2.53;;;13.90;99.90;;;;;;5052659;28;20794;-32
2023/03/13 00:44:03;;;;;;;7.47;2.20;;;14.00;99.90;;;;;;5047599;28;20204;-32
2023/03/13 00:46:32;;;;;;;8.30;2.33;;;14.00;99.90;;;;;;5045802;28;20315;-32
2023/03/13 00:49:02;;;;;;;10.73;2.20;;;14.00;99.90;;;;;;5047901;28;20200;-32
2023/03/13 00:51:29;;;;;;;6.00;1.97;;;14.00;99.90;;;;;;5036078;28;20228;-32
2023/03/13 00:54:01;;;;;;;8.57;2.10;;;13.90;99.90;;;;;;5044974;28;20236;-32
2023/03/13 00:56:28;;;;;;;8.93;2.17;;;13.90;99.90;;;;;;5046343;28;20188;-32
2023/03/13 00:58:57;;;;;;;6.47;2.30;;;13.90;99.90;;;;;;5047743;28;20209;-32
2023/03/13 01:01:29;;;;;;;6.20;2.03;;;13.90;99.90;;;;;;5047957;28;20201;-32
2023/03/13 01:04:04;;;;;;;5.90;1.97;;;13.90;99.90;;;;;;5047564;28;20212;-32
2023/03/13 01:06:36;;;;;;;3.73;1.77;;;13.90;99.90;;;;;;5063005;28;20671;-31
2023/03/13 01:09:06;;;;;;;8.00;1.90;;;13.90;99.90;;;;;;5047202;28;20211;-32
2023/03/13 01:11:40;;;;;;;4.07;1.70;;;13.90;99.90;;;;;;5027639;28;20221;-32
2023/03/13 01:14:15;;;;;;;6.00;1.70;;;13.90;99.90;;;;;;5027653;28;20204;-31
2023/03/13 01:16:42;;;;;;;4.13;1.47;;;13.90;99.90;;;;;;5026608;28;20270;-31
2023/03/13 01:19:16;;;;;;;3.97;1.40;;;13.90;99.90;;;;;;5010161;28;20324;-31
2023/03/13 01:21:49;;;;;;;4.17;1.50;;;13.90;99.90;;;;;;5027692;28;20303;-32
2023/03/13 01:24:19;;;;;;;5.00;1.70;;;13.90;99.90;;;;;;5026415;28;20213;-32
2023/03/13 01:26:46;;;;;;;3.63;1.43;;;13.90;99.90;;;;;;5033722;28;20674;-31
2023/03/13 01:29:20;;;;;;;5.77;1.40;;;13.90;99.90;;;;;;5047310;28;20249;-31
2023/03/13 01:31:50;;;;;;;3.83;1.53;;;13.90;99.90;;;;;;5047387;28;20227;-32
2023/03/13 01:34:20;;;;;;;6.13;1.50;;;14.00;99.90;;;;;;5045916;28;20207;-32
2023/03/13 01:36:51;;;;;;;4.87;1.60;;;14.00;99.90;;;;;;5046706;28;20551;-32
2023/03/13 01:39:20;;;;;;;5.37;1.70;;;14.00;99.90;;;;;;5044579;28;20768;-31
2023/03/13 01:41:50;;;;;;;4.87;1.90;;;14.00;99.90;;;;;;5061675;28;20741;-32
2023/03/13 01:44:28;;;;;;;4.10;1.47;;;14.10;99.90;;;;;;5039256;28;20608;-32
2023/03/13 01:46:56;;;;;;;5.10;2.20;;;14.10;99.90;;;;;;5044610;28;20302;-32
2023/03/13 01:49:28;;;;;;;2.77;1.60;;;14.10;99.90;;;;;;5028161;28;20599;-31
2023/03/13 01:52:24;;;;;;;3.37;1.97;;;14.20;99.90;;;;;;5034276;28;20221;-32
2023/03/13 01:55:08;;;;;;;4.30;2.10;;;14.20;99.90;;;;;;5028691;28;20228;-32
2023/03/13 01:57:45;;;;;;;4.50;2.60;;;14.20;99.90;;;;;;5040482;28;20230;-32
2023/03/13 02:00:21;;;;;;;3.33;2.07;;;14.20;99.90;;;;;;5044787;28;20303;-32
2023/03/13 02:02:54;;;;;;;5.20;2.10;;;14.20;99.90;;;;;;5042587;28;20200;-32
2023/03/13 02:05:27;;;;;;;3.70;2.30;;;14.20;99.90;;;;;;5031116;28;20220;-31
2023/03/13 02:08:12;;;;;;;5.13;2.33;;;14.20;99.90;;;;;;5038325;28;20209;-32
2023/03/13 02:10:52;;;;;;;4.83;2.50;;;14.20;99.90;;;;;;5034052;28;20234;-32
2023/03/13 02:13:24;;;;;;;3.67;2.30;;;14.20;99.90;;;;;;5032543;28;20192;-32
2023/03/13 02:15:55;;;;;;;3.43;2.40;;;14.30;99.90;;;;;;5037277;28;20659;-32
2023/03/13 02:18:25;;;;;;;3.70;2.03;;;14.30;99.90;;;;;;5039874;28;20345;-31
2023/03/13 02:21:04;;;;;;;4.43;2.37;;;14.30;99.90;;;;;;5034838;28;20255;-31
2023/03/13 02:23:45;;;;;;;3.40;2.20;;;14.40;99.90;;;;;;5028655;28;20209;-31
2023/03/13 02:26:12;;;;;;;3.93;2.50;;;14.40;99.90;;;;;;5026948;28;20653;-32
2023/03/13 02:28:42;;;;;;;3.53;2.10;;;14.40;99.90;;;;;;5033737;28;20208;-32
2023/03/13 02:31:12;;;;;;;4.43;2.17;;;14.40;99.90;;;;;;5044651;28;20218;-31
2023/03/13 02:33:43;;;;;;;2.90;1.97;;;14.40;99.90;;;;;;5044962;28;20752;-33
2023/03/13 02:36:13;;;;;;;3.77;2.13;;;14.40;99.90;;;;;;5044016;28;20294;-33
2023/03/13 02:38:52;;;;;;;4.13;2.53;;;14.40;99.90;;;;;;5043932;28;20195;-32
2023/03/13 02:41:23;;;;;;;3.90;2.30;;;14.50;99.90;;;;;;5044653;28;20619;-32
2023/03/13 02:43:50;;;;;;;6.17;2.97;;;14.50;99.90;;;;;;5044663;28;20196;-32
2023/03/13 02:46:19;;;;;;;5.40;2.50;;;14.60;99.90;;;;;;5044347;28;20283;-32
2023/03/13 02:48:54;;;;;;;3.43;2.40;;;14.60;99.90;;;;;;5044351;28;20301;-33
2023/03/13 02:51:35;;;;;;;6.50;2.70;;;14.60;99.90;;;;;;5044085;28;20541;-32
2023/03/13 02:54:07;;;;;;;4.87;2.90;;;14.70;99.90;;;;;;5045036;28;20593;-32
2023/03/13 02:56:39;;;;;;;5.17;2.40;;;14.70;99.90;;;;;;5029008;28;20291;-32
2023/03/13 02:59:12;;;;;;;3.43;2.80;;;14.70;99.90;;;;;;5044363;28;20302;-32
2023/03/13 03:01:41;;;;;;;5.50;2.90;;;14.70;99.90;;;;;;5035984;28;20567;-32
2023/03/13 03:04:10;;;;;;;4.20;2.70;;;14.70;99.90;;;;;;5023482;28;20304;-32
2023/03/13 03:06:40;;;;;;;5.73;2.83;;;14.70;99.90;;;;;;5030843;28;20367;-32
2023/03/13 03:09:10;;;;;;;5.43;2.63;;;14.80;99.90;;;;;;5044570;28;20771;-32
2023/03/13 03:11:37;;;;;;;3.20;2.80;;;14.80;99.90;;;;;;5045452;28;20244;-32
2023/03/13 03:14:08;;;;;;;6.40;3.13;;;14.90;99.90;;;;;;5043965;28;20203;-33
2023/03/13 03:16:40;;;;;;;4.50;3.20;;;14.80;99.90;;;;;;5027241;28;20226;-32
2023/03/13 03:19:12;;;;;;;3.47;2.63;;;14.90;99.90;;;;;;5045133;28;20210;-31
2023/03/13 03:21:44;;;;;;;3.43;2.93;;;15.00;99.90;;;;;;5027629;28;20204;-31
2023/03/13 03:24:16;;;;;;;4.47;2.90;;;15.00;99.90;;;;;;5044301;28;20215;-31
2023/03/13 03:26:43;;;;;;;3.87;3.17;;;15.00;99.90;;;;;;5043854;28;20214;-32
2023/03/13 03:29:15;;;;;;;3.97;2.80;;;15.00;99.90;;;;;;5043884;28;20202;-32
2023/03/13 03:31:44;;;;;;;4.30;3.30;;;15.00;99.90;;;;;;5043749;28;20706;-32
2023/03/13 03:34:12;;;;;;;4.33;3.30;;;15.00;99.90;;;;;;5045426;28;20544;-32
2023/03/13 03:36:41;;;;;;;4.10;2.70;;;15.10;99.90;;;;;;5043750;28;20319;-32
2023/03/13 03:39:08;;;;;;;5.47;2.93;;;15.10;99.90;;;;;;5026602;28;20200;-32
2023/03/13 03:41:40;;;;;;;4.83;2.77;;;15.10;99.90;;;;;;5077026;28;20720;-31
2023/03/13 03:44:10;;;;;;;4.40;2.70;;;15.20;99.90;;;;;;5045069;28;20226;-32
2023/03/13 03:46:37;;;;;;;3.07;2.60;;;15.10;99.90;;;;;;5045183;28;20609;-31
2023/03/13 03:49:09;;;;;;;5.00;2.67;;;15.20;99.90;;;;;;5043456;28;20650;-32
2023/03/13 03:51:36;;;;;;;3.50;2.80;;;15.10;99.90;;;;;;5044884;28;20219;-32
2023/03/13 03:54:06;;;;;;;2.63;2.07;;;15.20;99.90;;;;;;5042467;28;20267;-31
2023/03/13 03:56:39;;;;;;;4.70;2.17;;;15.20;99.90;;;;;;5045559;28;20326;-31
2023/03/13 03:59:11;;;;;;;5.63;2.30;;;15.20;99.90;;;;;;5044581;28;20749;-32
2023/03/13 04:01:40;;;;;;;5.00;2.47;;;15.30;99.90;;;;;;5045148;28;21074;-32
2023/03/13 04:04:10;;;;;;;2.43;2.10;;;15.20;99.90;;;;;;5046177;28;20219;-32
2023/03/13 04:06:39;;;;;;;2.60;1.93;;;15.20;99.90;;;;;;5043157;28;20295;-32
2023/03/13 04:09:08;;;;;;;3.80;2.30;;;15.20;99.90;;;;;;5042458;28;20281;-32
2023/03/13 04:11:40;;;;;;;2.27;1.90;;;15.20;99.90;;;;;;5032236;28;20225;-32
2023/03/13 04:14:09;;;;;;;2.60;1.93;;;15.30;99.90;;;;;;5042711;28;20204;-32
2023/03/13 04:16:41;;;;;;;2.77;1.90;;;15.30;99.90;;;;;;5044074;28;20278;-32
2023/03/13 04:19:10;;;;;;;4.10;2.10;;;15.30;99.90;;;;;;5046908;28;20196;-32
2023/03/13 04:21:39;;;;;;;5.53;2.23;;;15.30;99.90;;;;;;5046782;28;20208;-32
2023/03/13 04:24:09;;;;;;;2.67;1.60;;;15.30;99.90;;;;;;5046232;28;20702;-32
2023/03/13 04:26:36;;;;;;;4.70;2.33;;;15.30;99.90;;;;;;5046602;28;20226;-32
2023/03/13 04:29:05;;;;;;;3.20;2.00;;;15.30;99.90;;;;;;5046390;28;20208;-32
2023/03/13 04:31:37;;;;;;;2.63;1.63;;;15.30;99.90;;;;;;5048028;28;20220;-32
2023/03/13 04:34:06;;;;;;;2.93;1.80;;;15.40;99.90;;;;;;5047828;28;20208;-32
2023/03/13 04:36:35;;;;;;;5.37;2.20;;;15.40;99.90;;;;;;5046742;28;20216;-31
2023/03/13 04:39:05;;;;;;;3.23;1.80;;;15.40;99.90;;;;;;5045919;28;20752;-31
2023/03/13 04:41:34;;;;;;;4.30;2.10;;;15.40;99.90;;;;;;5046819;28;20288;-31
2023/03/13 04:44:04;;;;;;;3.70;2.07;;;15.40;99.90;;;;;;5046090;28;20746;-31
2023/03/13 04:46:33;;;;;;;3.37;1.87;;;15.40;99.90;;;;;;5030674;28;20295;-32
2023/03/13 04:49:01;;;;;;;4.57;2.40;;;15.40;99.90;;;;;;5047760;28;20210;-31
2023/03/13 04:51:30;;;;;;;5.03;1.83;;;15.40;99.90;;;;;;5047377;28;20208;-32
2023/03/13 04:53:57;;;;;;;4.07;2.30;;;15.50;99.90;;;;;;5045681;28;20256;-32
2023/03/13 04:56:27;;;;;;;4.60;2.03;;;15.50;99.90;;;;;;5029088;28;20219;-31
2023/03/13 04:59:17;;;;;;;3.50;1.80;;;15.50;99.90;;;;;;5047293;28;20192;-32
2023/03/13 05:01:44;;;;;;;3.43;2.03;;;15.50;99.90;;;;;;5048013;28;20841;-32
2023/03/13 05:04:14;;;;;;;6.67;2.27;;;15.40;99.90;;;;;;5045733;28;20381;-32
2023/03/13 05:06:41;;;;;;;5.00;2.20;;;15.50;99.90;;;;;;5045617;28;20847;-32
2023/03/13 05:09:08;;;;;;;4.73;1.90;;;15.50;99.90;;;;;;5028027;28;20208;-31
2023/03/13 05:11:41;;;;;;;6.73;2.20;;;15.50;99.90;;;;;;5029075;28;20680;-32
2023/03/13 05:14:10;;;;;;;6.80;2.30;;;15.50;99.90;;;;;;5041683;28;20236;-32
2023/03/13 05:16:38;;;;;;;4.50;2.00;;;15.50;99.90;;;;;;5037738;28;20734;-32
2023/03/13 05:19:05;;;;;;;7.23;2.33;;;15.50;99.90;;;;;;5035682;28;20221;-32
2023/03/13 05:21:34;;;;;;;8.47;2.20;;;15.50;99.90;;;;;;5044990;28;20851;-32
2023/03/13 05:24:04;;;;;;;4.40;2.10;;;15.50;99.90;;;;;;5046809;28;20192;-32
2023/03/13 05:26:33;;;;;;;5.43;2.40;;;15.50;99.90;;;;;;5027139;28;20205;-33
2023/03/13 05:29:00;;;;;;;3.00;1.83;;;15.50;99.90;;;;;;5025449;28;20572;-32
2023/03/13 05:31:27;;;;;;;9.37;2.63;;;15.50;99.90;;;;;;5027260;28;20203;-32
2023/03/13 05:33:55;;;;;;;5.17;1.77;;;15.50;99.90;;;;;;5026794;28;20287;-32
2023/03/13 05:36:22;;;;;;;4.80;2.20;;;15.50;99.90;;;;;;5033555;28;20283;-32
2023/03/13 05:38:49;;;;;;;5.17;2.20;;;15.50;99.90;;;;;;5045118;28;20212;-32
2023/03/13 05:41:16;;;;;;;5.73;2.20;;;15.60;99.90;;;;;;5044002;28;20287;-32
2023/03/13 05:43:44;;;;;;;4.70;2.40;;;15.60;99.90;;;;;;5045008;28;20312;-32
2023/03/13 05:46:13;;;;;;;5.97;2.20;;;15.60;99.90;;;;;;5045004;28;20775;-32
2023/03/13 05:48:40;;;;;;;6.63;2.33;;;15.60;99.90;;;;;;5044688;28;20211;-32
2023/03/13 05:51:10;;;;;;;9.67;2.10;;;15.60;99.90;;;;;;5045334;28;20603;-33
2023/03/13 05:53:39;;;;;;;5.80;2.20;;;15.60;99.90;;;;;;5046312;28;20330;-32
2023/03/13 05:56:11;;;;;;;4.03;2.03;;;15.50;99.90;;;;;;5044048;28;20216;-32
2023/03/13 05:58:40;;;;;;;7.33;2.77;;;15.60;99.90;;;;;;5040368;28;20195;-32
2023/03/13 06:01:09;;;;;;;7.93;2.33;;;15.60;99.90;;;;;;5045836;28;20659;-33
2023/03/13 06:03:40;;;;;;;5.97;2.20;;;15.60;99.90;;;;;;5046285;28;20959;-32
2023/03/13 06:06:08;;;;;;;10.03;2.43;;;15.60;99.90;;;;;;5046969;28;20230;-32
2023/03/13 06:08:37;;;;;;;6.80;2.70;;;15.60;99.90;;;;;;5047187;28;20291;-32
2023/03/13 06:11:05;;;;;;;5.47;2.23;;;15.60;99.90;;;;;;5044264;28;20715;-33
2023/03/13 06:13:32;;;;;;;7.33;2.63;;;15.60;99.90;;;;;;5027276;28;20224;-32
2023/03/13 06:15:59;;;;;;;4.00;1.97;;;15.60;99.90;;;;;;5036661;28;20205;-32
2023/03/13 06:18:29;;;;;;;7.80;2.83;;;15.50;99.90;;;;;;5026565;28;20209;-32
2023/03/13 06:21:01;;;;;;;7.57;2.30;;;15.60;99.90;;;;;;5030091;28;20213;-32
2023/03/13 06:23:28;;;;;;;6.63;2.20;;;15.60;99.90;;;;;;5040061;28;20197;-32
2023/03/13 06:25:55;;;;;;;7.20;2.73;;;15.60;99.90;;;;;;5035493;28;20204;-32
2023/03/13 06:28:27;;;;;;;5.67;2.30;;;15.60;99.90;;;;;;5029674;28;20304;-32
2023/03/13 06:30:56;;;;;;;7.10;2.17;;;15.60;99.90;;;;;;5037836;28;20215;-32
2023/03/13 06:33:25;;;;;;;8.63;2.77;;;15.60;99.90;;;;;;5045255;28;20595;-32
2023/03/13 06:35:52;;;;;;;7.80;2.83;;;15.60;99.90;;;;;;5044573;28;20231;-31
2023/03/13 06:38:27;;;;;;;8.80;2.47;;;15.60;99.90;;;;;;5043609;28;20333;-32
2023/03/13 06:40:57;;;;;;;7.40;2.30;;;15.60;99.90;;;;;;5042922;28;20236;-31
2023/03/13 06:43:24;;;;;;;8.60;2.50;;;15.60;99.90;;;;;;5045933;28;20200;-34
2023/03/13 06:45:54;;;;;;;12.13;3.27;;;15.70;99.90;;;;;;5039081;28;20209;-32
2023/03/13 06:48:26;;;;;;;5.43;2.30;;;15.60;99.90;;;;;;5036797;28;20204;-31
2023/03/13 06:50:55;;;;;;;6.47;2.60;;;15.60;99.90;;;;;;5036542;28;20204;-32
2023/03/13 06:53:27;;;;;;;7.53;2.20;;;15.60;99.90;;;;;;5043027;28;21049;-32
2023/03/13 06:55:59;;;;;;;6.80;2.43;;;15.70;99.90;;;;;;5024729;28;20216;-32
2023/03/13 06:58:29;;;;;;;8.70;2.57;;;15.70;99.90;;;;;;5055649;28;20208;-32
2023/03/13 07:01:25;;;;;;;5.53;2.40;;;15.70;99.90;;;;;;5041483;28;20200;-32
2023/03/13 07:03:57;;;;;;;5.50;2.10;;;15.70;99.90;;;;;;5053423;28;20209;-31
2023/03/13 07:06:27;;;;;;;7.20;2.27;;;15.60;99.90;;;;;;5025175;28;20283;-32
2023/03/13 07:08:56;;;;;;;9.40;2.63;;;15.70;99.90;;;;;;5028049;28;20204;-32
2023/03/13 07:11:26;;;;;;;5.63;2.40;;;15.70;99.90;;;;;;5041344;28;20196;-32
2023/03/13 07:13:55;;;;;;;10.03;3.13;;;15.70;99.90;;;;;;5062032;28;20630;-32
2023/03/13 07:16:44;;;;;;;7.57;2.40;;;15.70;99.90;;;;;;5043398;28;20204;-32
2023/03/13 07:19:12;;;;;;;17.10;4.27;;;15.70;99.90;;;;;;5044807;28;20292;-32
2023/03/13 07:21:40;;;;;;;9.10;2.73;;;15.70;99.90;;;;;;5040413;28;20223;-32
2023/03/13 07:24:09;;;;;;;10.67;3.00;;;15.70;99.90;;;;;;5042130;28;20214;-32
2023/03/13 07:26:39;;;;;;;11.50;4.07;;;15.70;99.90;;;;;;5056336;28;20212;-32
2023/03/13 07:29:24;;;;;;;9.77;3.17;;;15.70;99.90;;;;;;5044653;28;20298;-32
2023/03/13 07:31:52;;;;;;;9.20;3.00;;;15.80;99.90;;;;;;5059185;28;20216;-32
2023/03/13 07:34:21;;;;;;;9.23;2.77;;;15.80;99.90;;;;;;5043267;28;20220;-32
2023/03/13 07:36:53;;;;;;;9.27;2.60;;;15.80;99.90;;;;;;5044101;28;20212;-32
2023/03/13 07:39:26;;;;;;;6.80;2.40;;;15.80;99.90;;;;;;5037856;28;20200;-32
2023/03/13 07:41:53;;;;;;;12.77;3.63;;;15.90;99.90;;;;;;5043467;28;20213;-32
2023/03/13 07:44:22;;;;;;;7.60;2.73;;;15.90;99.90;;;;;;5054056;28;20639;-32
2023/03/13 07:46:52;;;;;;;14.53;3.30;;;15.90;99.90;;;;;;5041639;28;20335;-32
2023/03/13 07:49:21;;;;;;;6.63;2.83;;;15.90;99.90;;;;;;5043544;28;20211;-32
2023/03/13 07:51:51;;;;;;;7.50;2.40;;;15.90;99.90;;;;;;5066718;28;20733;-31
2023/03/13 07:54:18;;;;;;;8.20;2.60;;;15.90;99.90;;;;;;5045017;28;20658;-31
2023/03/13 07:56:45;;;;;;;6.13;2.40;;;16.00;99.90;;;;;;5027350;28;20840;-32
2023/03/13 07:59:12;;;;;;;11.40;3.10;;;16.00;99.90;;;;;;5038959;28;20271;-32
2023/03/13 08:01:39;;;;;;;6.27;2.30;;;16.00;99.90;;;;;;5047940;28;20201;-31
2023/03/13 08:04:13;;;;;;;5.17;2.30;;;16.00;99.90;;;;;;5047125;28;20215;-32
2023/03/13 08:06:43;;;;;;;6.43;2.60;;;16.00;99.90;;;;;;5049340;28;20216;-32
2023/03/13 08:09:15;;;;;;;6.33;2.27;;;16.10;99.90;;;;;;5046714;28;20215;-32
2023/03/13 08:11:43;;;;;;;7.00;2.50;;;16.10;99.90;;;;;;5051830;28;20215;-32
2023/03/13 08:14:13;;;;;;;4.63;2.30;;;16.10;99.90;;;;;;5065480;28;20229;-32
2023/03/13 08:16:42;;;;;;;7.27;2.70;;;16.10;99.90;;;;;;5061329;28;20303;-32
2023/03/13 08:19:12;;;;;;;5.80;2.50;;;16.10;99.90;;;;;;5046091;28;20196;-32
2023/03/13 08:21:41;;;;;;;7.23;2.33;;;16.10;99.90;;;;;;5063426;28;20200;-31
2023/03/13 08:24:10;;;;;;;10.63;2.60;;;16.10;99.90;;;;;;5067032;28;20317;-33
2023/03/13 08:26:43;;;;;;;6.53;2.53;;;16.20;99.90;;;;;;5049245;28;20209;-33
2023/03/13 08:29:13;;;;;;;6.30;3.00;;;16.20;99.90;;;;;;5047656;28;20204;-32
2023/03/13 08:31:46;;;;;;;4.47;2.27;;;16.20;99.90;;;;;;5048344;28;20211;-32
2023/03/13 08:34:15;;;;;;;6.17;2.77;;;16.20;99.90;;;;;;5062587;28;20330;-32
2023/03/13 08:36:43;;;;;;;7.63;2.33;;;16.30;99.90;;;;;;5039558;28;20674;-32
2023/03/13 08:39:16;;;;;;;6.27;2.40;;;16.30;99.90;;;;;;5045364;28;20200;-32
2023/03/13 08:41:46;;;;;;;5.93;2.07;;;16.30;99.90;;;;;;5028145;28;20220;-33
2023/03/13 08:44:15;;;;;;;8.57;2.90;;;16.30;99.90;;;;;;5045661;28;20215;-32
2023/03/13 08:46:46;;;;;;;5.60;2.10;;;16.30;99.90;;;;;;5041983;28;20200;-32
2023/03/13 08:49:16;;;;;;;8.03;2.20;;;16.40;99.90;;;;;;5036122;28;20239;-33
2023/03/13 08:51:44;;;;;;;10.13;2.43;;;16.40;99.90;;;;;;5049749;28;20200;-32
2023/03/13 08:54:11;;;;;;;15.20;2.60;;;16.40;99.90;;;;;;5044679;28;20745;-33
2023/03/13 08:56:42;;;;;;;6.20;2.10;;;16.50;99.90;;;;;;5047583;28;20209;-32
2023/03/13 08:59:14;;;;;;;6.97;2.50;;;16.50;99.90;;;;;;5061078;28;20698;-33
2023/03/13 09:01:46;;;;;;;4.33;2.13;;;16.50;99.90;;;;;;5046321;28;20200;-33
2023/03/13 09:04:16;;;;;;;6.67;2.23;;;16.50;99.90;;;;;;5048000;28;20263;-33
2023/03/13 09:06:46;;;;;;;6.60;2.40;;;16.50;99.90;;;;;;5045222;28;20643;-32
2023/03/13 09:09:16;;;;;;;6.57;2.17;;;16.50;99.90;;;;;;5047637;28;20365;-32
2023/03/13 09:11:43;;;;;;;4.05;1.90;;;16.50;99.90;;;;;;5048319;28;20737;-32
2023/03/13 09:14:13;;;;;;;4.38;2.30;;;16.50;99.90;;;;;;5046306;28;20330;-32
2023/03/13 09:16:40;;;;;;;6.00;2.40;;;16.50;99.90;;;;;;5046963;28;20291;-32
2023/03/13 09:19:10;;;;;;;7.45;2.03;;;16.60;99.90;;;;;;5046819;28;20721;-32
2023/03/13 09:21:39;;;;;;;8.03;2.30;;;16.70;99.90;;;;;;5039968;28;20730;-32
2023/03/13 09:24:07;;;;;;;6.67;1.90;;;16.70;99.90;;;;;;5041966;28;20208;-33
2023/03/13 09:26:36;;;;;;;3.20;1.73;;;16.80;99.90;;;;;;5046595;28;21890;-32
2023/03/13 09:29:08;;;;;;;4.67;2.13;;;16.80;99.90;;;;;;5046099;28;20210;-33
2023/03/13 09:31:40;;;;;;;5.25;2.28;;;16.90;99.90;;;;;;5036246;28;20661;-33
2023/03/13 09:34:07;;;;;;;10.23;2.57;;;16.90;99.90;;;;;;5057812;28;20232;-32
2023/03/13 09:36:36;;;;;;;4.32;1.63;;;17.00;99.90;;;;;;5039396;28;20631;-33
2023/03/13 09:39:09;;;;;;;3.42;1.40;;;17.00;99.90;;;;;;5061276;28;20205;-33
2023/03/13 09:41:49;;;;;;;5.03;2.23;;;17.00;99.90;;;;;;5049357;28;20212;-32
2023/03/13 09:44:25;;;;;;;5.00;1.93;;;17.00;99.90;;;;;;5060595;28;20239;-33
2023/03/13 09:47:05;;;;;;;6.37;2.20;;;17.10;99.90;;;;;;5046545;28;20200;-33
2023/03/13 09:49:35;;;;;;;4.60;2.10;;;17.00;99.90;;;;;;5045019;28;20694;-33
2023/03/13 09:52:14;;;;;;;15.53;4.13;;;17.10;99.90;;;;;;5039074;28;20213;-33
2023/03/13 09:54:47;;;;;;;10.43;3.00;;;17.10;99.90;;;;;;5037294;28;20726;-32
2023/03/13 09:57:47;;;;;;;6.47;2.20;;;17.10;99.90;;;;;;5040371;28;20255;-32
2023/03/13 10:00:30;;;;;;;5.90;2.30;;;17.20;99.90;;;;;;5040318;28;20284;-33
2023/03/13 10:03:06;;;;;;;5.97;2.30;;;17.30;99.90;;;;;;5043956;28;20290;-32
2023/03/13 10:05:33;;;;;;;6.00;1.90;;;17.30;99.90;;;;;;5044557;28;20200;-32
2023/03/13 10:08:11;;;;;;;7.13;2.30;;;17.30;99.90;;;;;;5022625;28;20580;-32
2023/03/13 10:10:44;;;;;;;10.07;2.50;;;17.30;99.90;;;;;;5041450;28;20240;-33
2023/03/13 10:13:33;;;;;;;10.03;2.90;;;17.30;99.90;;;;;;5029505;28;20569;-33
2023/03/13 10:16:08;;;;;;;5.43;2.10;;;17.40;99.90;;;;;;5032752;28;20254;-32
2023/03/13 10:18:36;;;;;;;5.73;1.80;;;17.40;99.90;;;;;;5045633;28;20291;-33
2023/03/13 10:21:25;;;;;;;9.53;3.03;;;17.40;99.90;;;;;;5053664;28;20299;-33
2023/03/13 10:24:16;;;;;;;5.83;2.10;;;17.50;99.90;;;;;;5044540;28;20232;-32
2023/03/13 10:26:49;;;;;;;3.67;1.90;;;17.50;99.90;;;;;;5043038;28;20192;-32
2023/03/13 10:29:22;;;;;;;10.88;2.63;;;17.60;99.90;;;;;;5045435;28;20211;-32
2023/03/13 10:32:04;;;;;;;7.37;1.93;;;17.60;99.90;;;;;;5043401;28;20204;-33
2023/03/13 10:35:04;;;;;;;6.97;1.67;;;17.50;99.90;;;;;;5050528;28;20327;-33
2023/03/13 10:37:43;;;;;;;2.93;1.83;;;17.60;99.90;;;;;;5048299;28;20200;-32
2023/03/13 10:40:12;;;;;;;3.77;1.63;;;17.60;99.90;;;;;;5032881;28;20551;-33
2023/03/13 10:42:45;;;;;;;3.07;1.70;;;17.60;99.90;;;;;;5033844;28;20214;-33
2023/03/13 10:45:18;;;;;;;4.67;1.90;;;17.60;99.90;;;;;;5045481;28;20218;-33
2023/03/13 10:47:58;;;;;;;3.63;1.77;;;17.60;99.90;;;;;;5031284;28;20209;-32
2023/03/13 10:50:34;;;;;;;6.70;3.05;;;17.50;99.90;;;;;;5025074;28;20216;-32
2023/03/13 10:53:22;;;;;;;4.55;1.42;;;17.60;99.90;;;;;;5043813;28;20244;-33
2023/03/13 10:55:55;;;;;;;5.17;1.60;;;17.60;99.90;;;;;;5045104;28;20214;-33
2023/03/13 10:58:47;;;;;;;3.07;1.43;;;17.60;99.90;;;;;;5064402;28;20757;-33
2023/03/13 11:01:15;;;;;;;4.03;1.43;;;17.60;99.90;;;;;;5027020;28;20316;-33
2023/03/13 11:03:46;;;;;;;4.75;1.45;;;17.60;99.90;;;;;;5044606;28;20702;-33
2023/03/13 11:06:27;;;;;;;4.88;1.85;;;17.60;99.90;;;;;;5046657;28;20212;-33
2023/03/13 11:09:20;;;;;;;4.97;1.47;;;17.60;99.90;;;;;;5043152;28;20289;-32
2023/03/13 11:12:00;;;;;;;2.90;1.35;;;17.60;99.90;;;;;;5044738;28;20223;-32
2023/03/13 11:14:33;;;;;;;2.63;1.33;;;17.60;99.90;;;;;;5042039;28;20305;-32
2023/03/13 11:17:14;;;;;;;2.70;1.23;;;17.60;99.90;;;;;;5039606;28;20315;-32
2023/03/13 11:19:52;;;;;;;7.07;2.00;;;17.70;99.90;;;;;;5033129;28;20213;-33
2023/03/13 11:22:50;;;;;;;5.47;1.47;;;17.70;99.90;;;;;;5042012;28;20274;-32
2023/03/13 11:25:42;;;;;;;5.87;1.77;;;17.70;99.90;;;;;;5043117;28;20837;-33
2023/03/13 11:28:29;;;;;;;3.83;1.50;;;17.70;99.90;;;;;;5056683;28;20212;-33
2023/03/13 11:31:22;;;;;;;2.58;1.42;;;17.70;99.90;;;;;;5038950;28;20204;-32
2023/03/13 11:34:01;;;;;;;1.23;0.97;;;17.70;99.90;;;;;;5023669;28;20231;-33
2023/03/13 11:36:34;;;;;;;2.88;1.20;;;17.70;99.90;;;;;;5038240;28;20288;-33
2023/03/13 11:39:30;;;;;;;1.80;0.80;;;17.80;99.90;;;;;;5050278;28;20230;-33
2023/03/13 11:42:09;;;;;;;2.40;1.38;;;17.80;99.90;;;;;;5038820;28;20196;-33
2023/03/13 11:45:16;;;;;;;3.20;1.40;;;17.90;99.90;;;;;;5050154;28;20220;-32
2023/03/13 11:47:55;;;;;;;4.73;1.50;;;17.90;99.90;;;;;;5045167;28;20544;-33
2023/03/13 11:50:30;;;;;;;2.47;1.43;;;18.00;99.90;;;;;;5045604;28;20208;-32
2023/03/13 11:53:18;;;;;;;2.87;1.20;;;18.00;99.90;;;;;;5043043;28;20309;-33
2023/03/13 11:55:52;;;;;;;2.13;1.20;;;18.10;99.90;;;;;;5027084;28;20208;-33
2023/03/13 11:58:21;;;;;;;3.15;1.20;;;18.00;99.90;;;;;;5040180;28;20213;-32
2023/03/13 12:01:09;;;;;;;3.20;1.20;;;18.00;99.90;;;;;;5047943;28;20805;-33
2023/03/13 12:03:56;;;;;;;3.47;1.07;;;18.10;99.90;;;;;;5059343;28;20570;-32
2023/03/13 12:06:36;;;;;;;12.82;3.30;;;18.00;99.90;;;;;;5023158;28;20267;-32
2023/03/13 12:09:14;;;;;;;4.53;1.20;;;18.00;99.90;;;;;;5043607;28;20204;-32
2023/03/13 12:12:02;;;;;;;4.57;1.10;;;18.00;99.90;;;;;;5056631;28;20297;-33
2023/03/13 12:14:56;;;;;;;3.35;1.33;;;18.00;99.90;;;;;;5043228;28;20274;-32
2023/03/13 12:17:41;;;;;;;5.47;1.08;;;18.00;99.90;;;;;;5054529;28;20255;-32
2023/03/13 12:20:24;;;;;;;5.17;1.07;;;18.00;99.90;;;;;;5060359;28;20577;-33
2023/03/13 12:23:15;;;;;;;2.40;1.13;;;17.90;99.90;;;;;;5037180;28;20280;-32
2023/03/13 12:25:49;;;;;;;9.40;1.37;;;17.90;99.90;;;;;;5046378;28;20662;-32
2023/03/13 12:28:51;;;;;;;1.33;1.00;;;17.90;99.90;;;;;;5044689;28;20315;-33
2023/03/13 12:31:34;;;;;;;2.40;0.90;;;17.90;99.90;;;;;;4970157;28;20221;-33
2023/03/13 12:34:19;;;;;;;5.30;1.00;;;18.00;99.90;;;;;;5043373;28;20889;-32
2023/03/13 12:37:11;;;;;;;6.40;1.30;;;18.00;99.90;;;;;;5052376;28;20208;-33
2023/03/13 12:39:48;;;;;;;3.47;0.93;;;18.00;99.90;;;;;;5049863;28;20208;-33
2023/03/13 12:42:36;;;;;;;7.93;2.30;;;18.00;99.90;;;;;;5043099;28;20192;-33
2023/03/13 12:45:20;;;;;;;3.60;0.90;;;18.10;99.90;;;;;;5057257;28;20223;-33
2023/03/13 12:48:06;;;;;;;3.97;1.20;;;18.10;99.90;;;;;;5041860;28;20299;-33
2023/03/13 12:51:11;;;;;;;3.10;1.17;;;18.00;99.90;;;;;;5080714;28;20208;-32
2023/03/13 12:53:47;;;;;;;3.13;0.90;;;18.00;99.90;;;;;;5028631;28;20236;-33
2023/03/13 12:56:17;;;;;;;2.50;0.88;;;18.00;99.90;;;;;;5042049;28;20218;-32
2023/03/13 12:58:49;;;;;;;5.65;1.20;;;18.00;99.90;;;;;;5045773;28;20200;-32
2023/03/13 13:01:32;;;;;;;4.53;1.27;;;18.00;99.90;;;;;;5047524;28;20295;-33
2023/03/13 13:04:04;;;;;;;6.40;1.58;;;18.00;99.90;;;;;;5040402;28;20218;-33
2023/03/13 13:06:50;;;;;;;3.72;0.80;;;18.10;99.90;;;;;;5042863;28;20767;-32
2023/03/13 13:09:26;;;;;;;3.35;1.20;;;18.10;99.90;;;;;;5035715;28;20209;-33
2023/03/13 13:12:02;;;;;;;9.90;2.53;;;18.20;99.90;;;;;;5041828;28;20632;-33
2023/03/13 13:14:30;;;;;;;6.72;1.35;;;18.20;99.90;;;;;;5044722;28;20280;-33
2023/03/13 13:17:16;;;;;;;3.00;1.00;;;18.20;99.90;;;;;;5048181;28;20315;-34